createdAt,value
2019-05-11T00:00:22.451Z,8.37
2019-05-11T00:05:25.041Z,6.60
2019-05-11T00:10:28.247Z,5.87
2019-05-11T00:15:31.766Z,6.50
2019-05-11T00:20:34.950Z,6.40
2019-05-11T00:25:37.865Z,6.53
2019-05-11T00:30:41.088Z,5.93
2019-05-11T00:35:43.983Z,5.90
2019-05-11T00:40:47.106Z,5.50
2019-05-11T00:45:50.416Z,5.97
2019-05-11T00:50:53.729Z,4.33
2019-05-11T00:55:56.395Z,4.90
2019-05-11T01:00:59.934Z,4.40
2019-05-11T01:06:03.082Z,5.90
2019-05-11T01:11:06.141Z,4.70
2019-05-11T01:16:09.339Z,4.50
2019-05-11T01:21:12.274Z,5.20
2019-05-11T01:26:15.206Z,5.17
2019-05-11T01:31:18.052Z,5.03
2019-05-11T01:36:21.369Z,4.37
2019-05-11T01:41:24.590Z,4.53
2019-05-11T01:46:28.083Z,4.83
2019-05-11T01:51:31.389Z,5.20
2019-05-11T01:56:34.680Z,4.03
2019-05-11T02:01:37.940Z,4.93
2019-05-11T02:06:41.157Z,5.00
2019-05-11T02:11:46.460Z,4.60
2019-05-11T02:16:49.780Z,4.27
2019-05-11T02:21:53.007Z,5.20
2019-05-11T02:26:57.272Z,4.67
2019-05-11T02:32:00.476Z,5.00
2019-05-11T02:37:03.179Z,5.33
2019-05-11T02:42:06.762Z,5.00
2019-05-11T02:47:09.987Z,4.30
2019-05-11T02:52:13.939Z,4.93
2019-05-11T02:57:17.347Z,6.27
2019-05-11T03:02:20.821Z,13.10
2019-05-11T03:07:24.142Z,10.27
2019-05-11T03:12:27.644Z,8.03
2019-05-11T03:17:32.390Z,7.40
2019-05-11T03:22:34.943Z,7.30
2019-05-11T03:27:37.837Z,7.67
2019-05-11T03:32:41.128Z,9.97
2019-05-11T03:37:44.664Z,12.37
2019-05-11T03:42:47.614Z,9.50
2019-05-11T03:47:51.151Z,9.93
2019-05-11T03:52:54.389Z,7.67
2019-05-11T03:57:57.248Z,7.47
2019-05-11T04:03:00.406Z,6.10
2019-05-11T04:08:04.217Z,6.77
2019-05-11T04:13:07.382Z,6.83
2019-05-11T04:18:10.455Z,4.47
2019-05-11T04:23:14.134Z,5.80
2019-05-11T04:28:17.327Z,5.40
2019-05-11T04:33:20.554Z,6.10
2019-05-11T04:38:23.132Z,5.80
2019-05-11T04:43:26.735Z,5.90
2019-05-11T04:48:30.921Z,5.37
2019-05-11T04:53:34.046Z,6.43
2019-05-11T04:58:37.244Z,6.57
2019-05-11T05:03:41.300Z,6.50
2019-05-11T05:08:44.791Z,7.90
2019-05-11T05:13:47.458Z,6.70
2019-05-11T05:18:50.702Z,7.53
2019-05-11T05:23:54.008Z,7.80
2019-05-11T05:28:56.941Z,7.17
2019-05-11T05:34:01.490Z,6.87
2019-05-11T05:39:08.877Z,6.93
2019-05-11T05:44:11.872Z,6.40
2019-05-11T05:49:15.150Z,6.13
2019-05-11T05:54:17.698Z,5.27
2019-05-11T05:59:20.893Z,5.40
2019-05-11T06:04:24.921Z,4.23
2019-05-11T06:09:28.115Z,5.83
2019-05-11T06:14:30.973Z,4.30
2019-05-11T06:19:34.724Z,4.50
2019-05-11T06:24:37.654Z,4.83
2019-05-11T06:29:40.545Z,3.23
2019-05-11T06:34:44.483Z,4.15
2019-05-11T06:39:47.387Z,3.73
2019-05-11T06:44:50.596Z,3.37
2019-05-11T06:49:54.217Z,3.40
2019-05-11T06:54:57.427Z,3.10
2019-05-11T07:00:00.633Z,2.70
2019-05-11T07:05:03.747Z,2.07
2019-05-11T07:10:07.155Z,1.80
2019-05-11T07:15:10.810Z,3.00
2019-05-11T07:20:14.080Z,1.93
2019-05-11T07:25:16.924Z,3.00
2019-05-11T07:30:19.865Z,2.30
2019-05-11T07:35:23.087Z,1.83
2019-05-11T07:40:27.927Z,2.50
2019-05-11T07:45:30.855Z,2.30
2019-05-11T07:50:34.152Z,2.27
2019-05-11T07:55:38.489Z,2.67
2019-05-11T08:00:41.430Z,1.47
2019-05-11T08:05:44.599Z,1.60
2019-05-11T08:10:48.431Z,1.60
2019-05-11T08:15:51.126Z,1.40
2019-05-11T08:20:54.322Z,1.70
2019-05-11T08:25:58.290Z,2.03
2019-05-11T08:31:01.213Z,1.90
2019-05-11T08:36:05.610Z,1.60
2019-05-11T08:41:08.530Z,1.90
2019-05-11T08:46:11.064Z,1.50
2019-05-11T08:51:14.336Z,1.67
2019-05-11T08:56:18.889Z,1.57
2019-05-11T09:01:22.862Z,1.83
2019-05-11T09:06:28.242Z,1.80
2019-05-11T09:11:31.102Z,1.90
2019-05-11T09:16:34.889Z,1.90
2019-05-11T09:21:40.744Z,1.77
2019-05-11T09:26:43.949Z,1.77
2019-05-11T09:31:48.702Z,1.30
2019-05-11T09:36:51.849Z,1.50
2019-05-11T09:41:54.990Z,1.93
2019-05-11T09:47:01.832Z,1.67
2019-05-11T09:52:04.524Z,1.87
2019-05-11T09:57:10.318Z,2.53
2019-05-11T10:02:17.653Z,1.70
2019-05-11T10:07:20.168Z,1.90
2019-05-11T10:12:23.214Z,1.70
2019-05-11T10:17:28.794Z,1.40
2019-05-11T10:22:31.488Z,1.77
2019-05-11T10:27:34.686Z,2.30
2019-05-11T10:32:40.843Z,2.20
2019-05-11T10:37:43.553Z,1.17
2019-05-11T10:42:48.389Z,1.70
2019-05-11T10:47:55.777Z,2.83
2019-05-11T10:52:59.031Z,1.50
2019-05-11T10:58:02.538Z,2.50
2019-05-11T11:03:08.286Z,2.30
2019-05-11T11:08:10.776Z,2.00
2019-05-11T11:13:14.096Z,2.13
2019-05-11T11:18:18.849Z,2.07
2019-05-11T11:23:22.667Z,2.57
2019-05-11T11:28:27.879Z,1.80
2019-05-11T11:33:30.833Z,2.33
2019-05-11T11:38:33.427Z,1.83
2019-05-11T11:43:37.736Z,1.90
2019-05-11T11:48:40.579Z,1.90
2019-05-11T11:53:44.091Z,2.60
2019-05-11T11:58:48.804Z,2.17
2019-05-11T12:03:52.321Z,2.00
2019-05-11T12:08:58.517Z,2.00
2019-05-11T12:14:01.192Z,2.17
2019-05-11T12:19:05.366Z,2.20
2019-05-11T12:24:09.050Z,1.40
2019-05-11T12:29:12.615Z,1.77
2019-05-11T12:34:17.950Z,1.63
2019-05-11T12:39:21.317Z,2.37
2019-05-11T12:44:24.855Z,1.90
2019-05-11T12:49:28.877Z,1.63
2019-05-11T12:54:33.988Z,1.70
2019-05-11T12:59:39.967Z,2.63
2019-05-11T13:04:43.403Z,2.10
2019-05-11T13:09:48.422Z,2.43
2019-05-11T13:14:51.388Z,1.70
2019-05-11T13:19:54.700Z,2.10
2019-05-11T13:24:58.846Z,2.30
2019-05-11T13:30:02.356Z,1.67
2019-05-11T13:35:05.917Z,2.53
2019-05-11T13:40:09.751Z,1.53
2019-05-11T13:45:13.013Z,2.17
2019-05-11T13:50:17.760Z,2.10
2019-05-11T13:55:20.861Z,1.90
2019-05-11T14:00:23.761Z,1.77
2019-05-11T14:05:28.476Z,1.73
2019-05-11T14:10:31.952Z,1.80
2019-05-11T14:15:35.093Z,1.60
2019-05-11T14:20:37.968Z,1.70
2019-05-11T14:25:41.407Z,2.00
2019-05-11T14:30:44.576Z,2.10
2019-05-11T14:35:48.953Z,1.70
2019-05-11T14:40:52.343Z,2.00
2019-05-11T14:45:55.215Z,1.87
2019-05-11T14:50:59.351Z,1.93
2019-05-11T14:56:02.455Z,2.00
2019-05-11T15:01:05.356Z,2.20
2019-05-11T15:06:08.911Z,1.60
2019-05-11T15:11:11.898Z,1.77
2019-05-11T15:16:18.475Z,1.60
2019-05-11T15:21:21.383Z,1.60
2019-05-11T15:26:24.576Z,1.37
2019-05-11T15:31:28.087Z,1.73
2019-05-11T15:36:30.682Z,2.10
2019-05-11T15:41:33.837Z,2.00
2019-05-11T15:46:38.765Z,2.27
2019-05-11T15:51:42.106Z,2.17
2019-05-11T15:56:45.680Z,1.30
2019-05-11T16:01:48.894Z,2.33
2019-05-11T16:06:52.441Z,1.30
2019-05-11T16:11:55.819Z,2.30
2019-05-11T16:16:58.731Z,1.33
2019-05-11T16:22:03.054Z,1.57
2019-05-11T16:27:08.351Z,1.40
2019-05-11T16:32:11.746Z,1.50
2019-05-11T16:37:14.974Z,1.27
2019-05-11T16:42:18.049Z,1.50
2019-05-11T16:47:21.270Z,2.93
2019-05-11T16:52:24.507Z,23.63
2019-05-11T16:57:27.474Z,13.40
2019-05-11T17:02:30.637Z,15.97
2019-05-11T17:07:33.913Z,18.27
2019-05-11T17:12:38.536Z,7.13
2019-05-11T17:17:42.038Z,19.37
2019-05-11T17:22:47.499Z,11.33
2019-05-11T17:27:50.184Z,12.77
2019-05-11T17:32:53.790Z,5.93
2019-05-11T17:37:57.054Z,6.67
2019-05-11T17:43:00.556Z,4.70
2019-05-11T17:48:03.463Z,4.50
2019-05-11T17:53:06.669Z,2.60
2019-05-11T17:58:09.993Z,3.20
2019-05-11T18:03:13.632Z,1.80
2019-05-11T18:08:18.729Z,2.10
2019-05-11T18:13:22.444Z,2.00
2019-05-11T18:18:25.721Z,2.60
2019-05-11T18:23:29.184Z,1.60
2019-05-11T18:28:32.209Z,1.77
2019-05-11T18:33:38.018Z,1.40
2019-05-11T18:38:40.960Z,1.50
2019-05-11T18:43:44.717Z,1.70
2019-05-11T18:48:48.693Z,2.43
2019-05-11T18:53:52.259Z,1.70
2019-05-11T18:58:55.472Z,1.60
2019-05-11T19:04:00.116Z,1.47
2019-05-11T19:09:06.149Z,1.30
2019-05-11T19:14:09.408Z,1.77
2019-05-11T19:19:12.712Z,1.30
2019-05-11T19:24:15.706Z,1.43
2019-05-11T19:29:21.181Z,1.20
2019-05-11T19:34:24.482Z,1.50
2019-05-11T19:39:28.147Z,1.10
2019-05-11T19:44:31.085Z,1.73
2019-05-11T19:49:34.093Z,1.30
2019-05-11T19:54:38.279Z,1.67
2019-05-11T19:59:41.364Z,1.07
2019-05-11T20:04:44.676Z,1.97
2019-05-11T20:09:47.575Z,1.60
2019-05-11T20:14:51.062Z,1.47
2019-05-11T20:19:54.779Z,1.53
2019-05-11T20:24:58.137Z,1.53
2019-05-11T20:30:04.293Z,1.50
2019-05-11T20:35:08.562Z,1.80
2019-05-11T20:40:12.301Z,1.70
2019-05-11T20:45:14.765Z,1.83
2019-05-11T20:50:18.691Z,1.77
2019-05-11T20:55:22.193Z,2.57
2019-05-11T21:00:27.882Z,2.37
2019-05-11T21:05:30.989Z,2.00
2019-05-11T21:10:34.298Z,1.60
2019-05-11T21:15:38.444Z,2.40
2019-05-11T21:20:41.720Z,1.97
2019-05-11T21:25:45.031Z,1.53
2019-05-11T21:30:48.240Z,1.60
2019-05-11T21:35:51.545Z,1.83
2019-05-11T21:40:57.943Z,2.00
2019-05-11T21:46:01.500Z,2.10
2019-05-11T21:51:04.324Z,2.43
2019-05-11T21:56:08.235Z,2.87
2019-05-11T22:01:12.086Z,1.83
2019-05-11T22:06:15.393Z,2.80
2019-05-11T22:11:18.654Z,2.03
2019-05-11T22:16:22.252Z,2.10
2019-05-11T22:21:27.833Z,1.33
2019-05-11T22:26:30.619Z,1.90
2019-05-11T22:31:33.191Z,1.87
2019-05-11T22:36:38.080Z,2.03
2019-05-11T22:41:40.451Z,2.93
2019-05-11T22:46:43.736Z,2.27
2019-05-11T22:51:46.664Z,2.20
2019-05-11T22:56:49.883Z,2.53
2019-05-11T23:01:52.802Z,1.90
2019-05-11T23:06:58.343Z,2.30
2019-05-11T23:12:01.226Z,2.33
2019-05-11T23:17:04.862Z,2.47
2019-05-11T23:22:08.405Z,2.33
2019-05-11T23:27:11.277Z,3.47
2019-05-11T23:32:14.241Z,2.23
2019-05-11T23:37:18.390Z,1.83
2019-05-11T23:42:21.589Z,2.13
2019-05-11T23:47:24.837Z,2.50
2019-05-11T23:52:29.532Z,2.30
2019-05-11T23:57:33.352Z,2.23
